sensor_id;sensor_type;location;lat;lon;timestamp;P1;durP1;ratioP1;P2;durP2;ratioP2
33453;SDS011;39400;49.744;7.012;2023-02-28T00:02:11;2.47;;;1.20;;
33453;SDS011;39400;49.744;7.012;2023-02-28T00:04:37;1.02;;;0.70;;
33453;SDS011;39400;49.744;7.012;2023-02-28T00:07:02;1.60;;;0.77;;
33453;SDS011;39400;49.744;7.012;2023-02-28T00:09:27;1.98;;;1.10;;
33453;SDS011;39400;49.744;7.012;2023-02-28T00:11:53;1.30;;;1.00;;
33453;SDS011;39400;49.744;7.012;2023-02-28T00:14:18;2.00;;;1.10;;
33453;SDS011;39400;49.744;7.012;2023-02-28T00:16:43;2.05;;;1.20;;
33453;SDS011;39400;49.744;7.012;2023-02-28T00:19:09;4.68;;;1.10;;
33453;SDS011;39400;49.744;7.012;2023-02-28T00:21:34;5.38;;;1.30;;
33453;SDS011;39400;49.744;7.012;2023-02-28T00:23:59;1.90;;;1.23;;
33453;SDS011;39400;49.744;7.012;2023-02-28T00:26:24;3.33;;;1.50;;
33453;SDS011;39400;49.744;7.012;2023-02-28T00:28:51;3.38;;;1.52;;
33453;SDS011;39400;49.744;7.012;2023-02-28T00:31:17;2.97;;;1.73;;
33453;SDS011;39400;49.744;7.012;2023-02-28T00:33:42;3.55;;;1.50;;
33453;SDS011;39400;49.744;7.012;2023-02-28T00:36:08;6.00;;;1.40;;
33453;SDS011;39400;49.744;7.012;2023-02-28T00:38:35;4.20;;;1.30;;
33453;SDS011;39400;49.744;7.012;2023-02-28T00:41:02;2.20;;;1.35;;
33453;SDS011;39400;49.744;7.012;2023-02-28T00:43:27;3.60;;;1.33;;
33453;SDS011;39400;49.744;7.012;2023-02-28T00:45:53;2.65;;;1.30;;
33453;SDS011;39400;49.744;7.012;2023-02-28T00:48:18;2.55;;;1.30;;
33453;SDS011;39400;49.744;7.012;2023-02-28T00:50:43;2.13;;;1.27;;
33453;SDS011;39400;49.744;7.012;2023-02-28T00:53:09;2.53;;;1.65;;
33453;SDS011;39400;49.744;7.012;2023-02-28T00:55:34;1.85;;;1.20;;
33453;SDS011;39400;49.744;7.012;2023-02-28T00:57:59;1.75;;;1.23;;
33453;SDS011;39400;49.744;7.012;2023-02-28T01:00:24;2.40;;;1.40;;
33453;SDS011;39400;49.744;7.012;2023-02-28T01:02:50;2.58;;;1.15;;
33453;SDS011;39400;49.744;7.012;2023-02-28T01:05:15;4.38;;;2.20;;
33453;SDS011;39400;49.744;7.012;2023-02-28T01:07:40;3.33;;;1.50;;
33453;SDS011;39400;49.744;7.012;2023-02-28T01:10:06;2.70;;;1.30;;
33453;SDS011;39400;49.744;7.012;2023-02-28T01:12:32;3.28;;;1.73;;
33453;SDS011;39400;49.744;7.012;2023-02-28T01:14:57;2.50;;;1.60;;
33453;SDS011;39400;49.744;7.012;2023-02-28T01:17:23;3.65;;;1.90;;
33453;SDS011;39400;49.744;7.012;2023-02-28T01:19:48;2.65;;;1.75;;
33453;SDS011;39400;49.744;7.012;2023-02-28T01:22:13;3.45;;;1.80;;
33453;SDS011;39400;49.744;7.012;2023-02-28T01:24:41;2.95;;;1.70;;
33453;SDS011;39400;49.744;7.012;2023-02-28T01:27:06;4.50;;;2.10;;
33453;SDS011;39400;49.744;7.012;2023-02-28T01:29:31;5.05;;;1.67;;
33453;SDS011;39400;49.744;7.012;2023-02-28T01:31:57;4.07;;;2.13;;
33453;SDS011;39400;49.744;7.012;2023-02-28T01:34:22;4.70;;;2.22;;
33453;SDS011;39400;49.744;7.012;2023-02-28T01:36:47;7.45;;;2.25;;
33453;SDS011;39400;49.744;7.012;2023-02-28T01:39:13;3.03;;;2.22;;
33453;SDS011;39400;49.744;7.012;2023-02-28T01:41:38;2.75;;;1.77;;
33453;SDS011;39400;49.744;7.012;2023-02-28T01:44:07;2.83;;;1.60;;
33453;SDS011;39400;49.744;7.012;2023-02-28T01:47:09;2.97;;;1.95;;
33453;SDS011;39400;49.744;7.012;2023-02-28T01:49:35;2.40;;;1.38;;
33453;SDS011;39400;49.744;7.012;2023-02-28T01:52:01;4.95;;;1.65;;
33453;SDS011;39400;49.744;7.012;2023-02-28T01:54:29;3.55;;;1.60;;
33453;SDS011;39400;49.744;7.012;2023-02-28T01:57:04;6.95;;;1.90;;
33453;SDS011;39400;49.744;7.012;2023-02-28T01:59:34;7.43;;;2.70;;
33453;SDS011;39400;49.744;7.012;2023-02-28T02:02:04;17.83;;;5.03;;
33453;SDS011;39400;49.744;7.012;2023-02-28T02:04:37;7.18;;;2.38;;
33453;SDS011;39400;49.744;7.012;2023-02-28T02:07:07;5.55;;;2.08;;
33453;SDS011;39400;49.744;7.012;2023-02-28T02:09:34;4.50;;;1.92;;
33453;SDS011;39400;49.744;7.012;2023-02-28T02:11:59;3.05;;;1.48;;
33453;SDS011;39400;49.744;7.012;2023-02-28T02:17:35;2.17;;;1.35;;
33453;SDS011;39400;49.744;7.012;2023-02-28T02:23:00;2.20;;;1.30;;
33453;SDS011;39400;49.744;7.012;2023-02-28T02:25:53;3.30;;;1.48;;
33453;SDS011;39400;49.744;7.012;2023-02-28T02:39:06;3.08;;;1.80;;
33453;SDS011;39400;49.744;7.012;2023-02-28T02:41:54;2.28;;;1.30;;
33453;SDS011;39400;49.744;7.012;2023-02-28T02:45:06;2.58;;;1.92;;
33453;SDS011;39400;49.744;7.012;2023-02-28T02:47:17;2.53;;;1.65;;
33453;SDS011;39400;49.744;7.012;2023-02-28T02:49:52;3.17;;;1.55;;
33453;SDS011;39400;49.744;7.012;2023-02-28T02:52:22;2.83;;;1.58;;
33453;SDS011;39400;49.744;7.012;2023-02-28T02:54:52;4.30;;;1.45;;
33453;SDS011;39400;49.744;7.012;2023-02-28T02:57:23;1.85;;;1.35;;
33453;SDS011;39400;49.744;7.012;2023-02-28T02:59:54;3.45;;;1.70;;
33453;SDS011;39400;49.744;7.012;2023-02-28T03:02:21;3.92;;;2.00;;
33453;SDS011;39400;49.744;7.012;2023-02-28T03:04:50;3.10;;;1.60;;
33453;SDS011;39400;49.744;7.012;2023-02-28T03:07:20;4.03;;;1.83;;
33453;SDS011;39400;49.744;7.012;2023-02-28T03:09:50;4.97;;;1.70;;
33453;SDS011;39400;49.744;7.012;2023-02-28T03:12:16;6.18;;;1.73;;
33453;SDS011;39400;49.744;7.012;2023-02-28T03:14:46;2.63;;;1.70;;
33453;SDS011;39400;49.744;7.012;2023-02-28T03:17:25;1.95;;;1.35;;
33453;SDS011;39400;49.744;7.012;2023-02-28T03:25:31;3.13;;;1.60;;
33453;SDS011;39400;49.744;7.012;2023-02-28T03:30:38;2.53;;;1.60;;
33453;SDS011;39400;49.744;7.012;2023-02-28T03:33:15;5.90;;;1.50;;
33453;SDS011;39400;49.744;7.012;2023-02-28T03:35:48;3.63;;;1.98;;
33453;SDS011;39400;49.744;7.012;2023-02-28T03:38:26;2.80;;;1.83;;
33453;SDS011;39400;49.744;7.012;2023-02-28T03:41:05;5.15;;;2.13;;
33453;SDS011;39400;49.744;7.012;2023-02-28T03:43:38;5.15;;;2.78;;
33453;SDS011;39400;49.744;7.012;2023-02-28T03:46:08;4.05;;;2.08;;
33453;SDS011;39400;49.744;7.012;2023-02-28T03:51:06;5.95;;;2.55;;
33453;SDS011;39400;49.744;7.012;2023-02-28T03:53:40;4.55;;;2.30;;
33453;SDS011;39400;49.744;7.012;2023-02-28T04:01:35;5.88;;;2.42;;
33453;SDS011;39400;49.744;7.012;2023-02-28T04:04:04;3.60;;;2.10;;
33453;SDS011;39400;49.744;7.012;2023-02-28T04:06:30;5.53;;;2.05;;
33453;SDS011;39400;49.744;7.012;2023-02-28T04:08:57;3.95;;;2.28;;
33453;SDS011;39400;49.744;7.012;2023-02-28T04:11:39;6.80;;;3.83;;
33453;SDS011;39400;49.744;7.012;2023-02-28T04:14:07;6.13;;;2.60;;
33453;SDS011;39400;49.744;7.012;2023-02-28T04:16:35;3.60;;;2.30;;
33453;SDS011;39400;49.744;7.012;2023-02-28T04:19:03;6.72;;;2.78;;
33453;SDS011;39400;49.744;7.012;2023-02-28T04:21:30;4.07;;;2.47;;
33453;SDS011;39400;49.744;7.012;2023-02-28T04:23:58;4.03;;;2.10;;
33453;SDS011;39400;49.744;7.012;2023-02-28T04:26:23;4.30;;;2.22;;
33453;SDS011;39400;49.744;7.012;2023-02-28T04:28:49;5.75;;;2.55;;
33453;SDS011;39400;49.744;7.012;2023-02-28T04:31:14;3.88;;;2.65;;
33453;SDS011;39400;49.744;7.012;2023-02-28T04:33:39;3.47;;;1.92;;
33453;SDS011;39400;49.744;7.012;2023-02-28T04:36:06;5.13;;;2.90;;
33453;SDS011;39400;49.744;7.012;2023-02-28T04:38:34;6.25;;;3.20;;
33453;SDS011;39400;49.744;7.012;2023-02-28T04:41:01;4.78;;;2.58;;
33453;SDS011;39400;49.744;7.012;2023-02-28T04:43:27;5.63;;;2.78;;
33453;SDS011;39400;49.744;7.012;2023-02-28T04:45:54;9.15;;;3.85;;
33453;SDS011;39400;49.744;7.012;2023-02-28T04:48:20;5.22;;;3.42;;
33453;SDS011;39400;49.744;7.012;2023-02-28T04:50:45;5.03;;;3.00;;
33453;SDS011;39400;49.744;7.012;2023-02-28T04:53:10;7.35;;;3.63;;
33453;SDS011;39400;49.744;7.012;2023-02-28T04:55:36;11.85;;;3.50;;
33453;SDS011;39400;49.744;7.012;2023-02-28T04:58:01;6.15;;;3.22;;
33453;SDS011;39400;49.744;7.012;2023-02-28T05:00:26;5.72;;;3.67;;
33453;SDS011;39400;49.744;7.012;2023-02-28T05:02:52;4.35;;;2.97;;
33453;SDS011;39400;49.744;7.012;2023-02-28T05:05:17;8.07;;;4.18;;
33453;SDS011;39400;49.744;7.012;2023-02-28T05:07:42;5.75;;;3.63;;
33453;SDS011;39400;49.744;7.012;2023-02-28T05:10:08;7.28;;;4.20;;
33453;SDS011;39400;49.744;7.012;2023-02-28T05:12:35;8.45;;;4.63;;
33453;SDS011;39400;49.744;7.012;2023-02-28T05:15:00;7.47;;;5.03;;
33453;SDS011;39400;49.744;7.012;2023-02-28T05:17:25;7.72;;;4.55;;
33453;SDS011;39400;49.744;7.012;2023-02-28T05:19:51;10.35;;;4.40;;
33453;SDS011;39400;49.744;7.012;2023-02-28T05:22:16;9.02;;;4.65;;
33453;SDS011;39400;49.744;7.012;2023-02-28T05:24:41;9.65;;;5.65;;
33453;SDS011;39400;49.744;7.012;2023-02-28T05:27:07;8.88;;;5.40;;
33453;SDS011;39400;49.744;7.012;2023-02-28T05:29:33;7.95;;;4.70;;
33453;SDS011;39400;49.744;7.012;2023-02-28T05:31:58;9.68;;;4.65;;
33453;SDS011;39400;49.744;7.012;2023-02-28T05:34:23;9.60;;;4.97;;
33453;SDS011;39400;49.744;7.012;2023-02-28T05:36:49;8.63;;;4.93;;
33453;SDS011;39400;49.744;7.012;2023-02-28T05:39:14;9.23;;;5.50;;
33453;SDS011;39400;49.744;7.012;2023-02-28T05:41:42;7.55;;;5.20;;
33453;SDS011;39400;49.744;7.012;2023-02-28T05:44:08;7.97;;;4.63;;
33453;SDS011;39400;49.744;7.012;2023-02-28T05:46:35;8.30;;;4.97;;
33453;SDS011;39400;49.744;7.012;2023-02-28T05:49:00;9.05;;;4.78;;
33453;SDS011;39400;49.744;7.012;2023-02-28T05:51:26;7.18;;;4.18;;
33453;SDS011;39400;49.744;7.012;2023-02-28T05:53:51;7.78;;;4.90;;
33453;SDS011;39400;49.744;7.012;2023-02-28T05:56:17;9.63;;;5.13;;
33453;SDS011;39400;49.744;7.012;2023-02-28T05:58:42;6.55;;;4.32;;
33453;SDS011;39400;49.744;7.012;2023-02-28T06:04:04;8.05;;;5.25;;
33453;SDS011;39400;49.744;7.012;2023-02-28T06:06:32;10.77;;;5.50;;
33453;SDS011;39400;49.744;7.012;2023-02-28T06:08:57;10.00;;;5.05;;
33453;SDS011;39400;49.744;7.012;2023-02-28T06:11:23;7.93;;;4.82;;
33453;SDS011;39400;49.744;7.012;2023-02-28T06:13:48;7.93;;;5.28;;
33453;SDS011;39400;49.744;7.012;2023-02-28T06:16:13;9.90;;;4.97;;
33453;SDS011;39400;49.744;7.012;2023-02-28T06:18:39;11.40;;;5.38;;
33453;SDS011;39400;49.744;7.012;2023-02-28T06:21:04;8.90;;;5.13;;
33453;SDS011;39400;49.744;7.012;2023-02-28T06:23:29;8.68;;;5.05;;
33453;SDS011;39400;49.744;7.012;2023-02-28T06:25:55;8.98;;;4.75;;
33453;SDS011;39400;49.744;7.012;2023-02-28T06:28:20;8.43;;;5.25;;
33453;SDS011;39400;49.744;7.012;2023-02-28T06:30:46;7.10;;;4.65;;
33453;SDS011;39400;49.744;7.012;2023-02-28T06:33:11;9.90;;;5.15;;
33453;SDS011;39400;49.744;7.012;2023-02-28T06:35:36;7.15;;;4.40;;
33453;SDS011;39400;49.744;7.012;2023-02-28T06:38:02;8.98;;;5.45;;
33453;SDS011;39400;49.744;7.012;2023-02-28T06:40:27;8.77;;;6.28;;
33453;SDS011;39400;49.744;7.012;2023-02-28T06:42:53;8.57;;;4.18;;
33453;SDS011;39400;49.744;7.012;2023-02-28T06:45:18;8.82;;;5.25;;
33453;SDS011;39400;49.744;7.012;2023-02-28T06:47:43;9.43;;;5.63;;
33453;SDS011;39400;49.744;7.012;2023-02-28T06:50:09;7.97;;;4.95;;
33453;SDS011;39400;49.744;7.012;2023-02-28T06:52:36;9.73;;;5.47;;
33453;SDS011;39400;49.744;7.012;2023-02-28T06:55:03;9.45;;;5.60;;
33453;SDS011;39400;49.744;7.012;2023-02-28T06:57:30;8.13;;;4.85;;
33453;SDS011;39400;49.744;7.012;2023-02-28T07:00:00;8.95;;;5.43;;
33453;SDS011;39400;49.744;7.012;2023-02-28T07:02:28;7.90;;;5.13;;
33453;SDS011;39400;49.744;7.012;2023-02-28T07:04:54;8.48;;;4.50;;
33453;SDS011;39400;49.744;7.012;2023-02-28T07:07:19;8.50;;;5.18;;
33453;SDS011;39400;49.744;7.012;2023-02-28T07:09:45;9.20;;;5.85;;
33453;SDS011;39400;49.744;7.012;2023-02-28T07:12:10;7.60;;;4.65;;
33453;SDS011;39400;49.744;7.012;2023-02-28T07:14:36;9.68;;;6.13;;
33453;SDS011;39400;49.744;7.012;2023-02-28T07:17:02;8.30;;;5.22;;
33453;SDS011;39400;49.744;7.012;2023-02-28T07:19:27;10.48;;;5.47;;
33453;SDS011;39400;49.744;7.012;2023-02-28T07:21:52;7.93;;;5.28;;
33453;SDS011;39400;49.744;7.012;2023-02-28T07:24:18;8.68;;;5.55;;
33453;SDS011;39400;49.744;7.012;2023-02-28T07:26:43;8.07;;;5.47;;
33453;SDS011;39400;49.744;7.012;2023-02-28T07:29:08;7.18;;;5.10;;
33453;SDS011;39400;49.744;7.012;2023-02-28T07:31:34;11.27;;;5.60;;
33453;SDS011;39400;49.744;7.012;2023-02-28T07:33:59;9.52;;;5.20;;
33453;SDS011;39400;49.744;7.012;2023-02-28T07:36:24;11.50;;;5.38;;
33453;SDS011;39400;49.744;7.012;2023-02-28T07:38:50;7.55;;;4.93;;
33453;SDS011;39400;49.744;7.012;2023-02-28T07:41:16;8.50;;;5.05;;
33453;SDS011;39400;49.744;7.012;2023-02-28T07:43:43;7.70;;;4.75;;
33453;SDS011;39400;49.744;7.012;2023-02-28T07:46:09;9.80;;;5.15;;
33453;SDS011;39400;49.744;7.012;2023-02-28T07:48:36;9.25;;;6.25;;
33453;SDS011;39400;49.744;7.012;2023-02-28T07:51:02;8.23;;;4.90;;
33453;SDS011;39400;49.744;7.012;2023-02-28T07:53:28;8.23;;;5.20;;
33453;SDS011;39400;49.744;7.012;2023-02-28T07:55:54;7.50;;;5.20;;
33453;SDS011;39400;49.744;7.012;2023-02-28T08:00:49;9.15;;;5.22;;
33453;SDS011;39400;49.744;7.012;2023-02-28T08:03:15;7.43;;;4.47;;
33453;SDS011;39400;49.744;7.012;2023-02-28T08:05:41;7.28;;;4.68;;
33453;SDS011;39400;49.744;7.012;2023-02-28T08:08:07;8.73;;;4.65;;
33453;SDS011;39400;49.744;7.012;2023-02-28T08:10:32;7.57;;;4.40;;
33453;SDS011;39400;49.744;7.012;2023-02-28T08:12:58;7.30;;;4.10;;
33453;SDS011;39400;49.744;7.012;2023-02-28T08:15:24;8.18;;;3.92;;
33453;SDS011;39400;49.744;7.012;2023-02-28T08:17:49;7.65;;;4.40;;
33453;SDS011;39400;49.744;7.012;2023-02-28T08:20:14;8.35;;;4.20;;
33453;SDS011;39400;49.744;7.012;2023-02-28T08:22:40;6.97;;;3.78;;
33453;SDS011;39400;49.744;7.012;2023-02-28T08:25:05;5.90;;;3.40;;
33453;SDS011;39400;49.744;7.012;2023-02-28T08:27:31;6.70;;;3.95;;
33453;SDS011;39400;49.744;7.012;2023-02-28T08:29:56;6.00;;;3.67;;
33453;SDS011;39400;49.744;7.012;2023-02-28T08:32:22;8.68;;;4.25;;
33453;SDS011;39400;49.744;7.012;2023-02-28T08:34:47;9.25;;;3.95;;
33453;SDS011;39400;49.744;7.012;2023-02-28T08:37:12;6.55;;;4.05;;
33453;SDS011;39400;49.744;7.012;2023-02-28T08:39:37;9.23;;;5.03;;
33453;SDS011;39400;49.744;7.012;2023-02-28T08:42:03;10.80;;;5.10;;
33453;SDS011;39400;49.744;7.012;2023-02-28T08:44:29;10.23;;;4.80;;
33453;SDS011;39400;49.744;7.012;2023-02-28T08:46:54;6.38;;;3.67;;
33453;SDS011;39400;49.744;7.012;2023-02-28T08:49:20;7.45;;;3.85;;
33453;SDS011;39400;49.744;7.012;2023-02-28T08:51:45;6.43;;;3.72;;
33453;SDS011;39400;49.744;7.012;2023-02-28T08:54:10;7.43;;;3.38;;
33453;SDS011;39400;49.744;7.012;2023-02-28T08:56:36;6.78;;;4.00;;
33453;SDS011;39400;49.744;7.012;2023-02-28T08:59:01;5.47;;;3.35;;
33453;SDS011;39400;49.744;7.012;2023-02-28T09:01:27;5.97;;;3.25;;
33453;SDS011;39400;49.744;7.012;2023-02-28T09:03:54;7.18;;;3.88;;
33453;SDS011;39400;49.744;7.012;2023-02-28T09:06:20;6.07;;;3.22;;
33453;SDS011;39400;49.744;7.012;2023-02-28T09:08:47;6.03;;;3.38;;
33453;SDS011;39400;49.744;7.012;2023-02-28T09:11:12;5.43;;;2.90;;
33453;SDS011;39400;49.744;7.012;2023-02-28T09:13:38;5.40;;;3.03;;
33453;SDS011;39400;49.744;7.012;2023-02-28T09:21:29;6.05;;;3.17;;
33453;SDS011;39400;49.744;7.012;2023-02-28T09:23:54;5.30;;;2.95;;
33453;SDS011;39400;49.744;7.012;2023-02-28T09:26:23;7.72;;;3.25;;
33453;SDS011;39400;49.744;7.012;2023-02-28T09:28:50;6.40;;;3.20;;
33453;SDS011;39400;49.744;7.012;2023-02-28T09:31:21;8.25;;;3.65;;
33453;SDS011;39400;49.744;7.012;2023-02-28T09:33:49;8.45;;;3.35;;
33453;SDS011;39400;49.744;7.012;2023-02-28T09:36:16;4.72;;;3.25;;
33453;SDS011;39400;49.744;7.012;2023-02-28T09:38:41;6.32;;;3.50;;
33453;SDS011;39400;49.744;7.012;2023-02-28T09:41:14;5.60;;;2.83;;
33453;SDS011;39400;49.744;7.012;2023-02-28T09:43:44;5.78;;;2.72;;
33453;SDS011;39400;49.744;7.012;2023-02-28T09:49:06;4.45;;;2.70;;
33453;SDS011;39400;49.744;7.012;2023-02-28T09:54:10;6.75;;;3.97;;
33453;SDS011;39400;49.744;7.012;2023-02-28T09:56:41;7.78;;;3.47;;
33453;SDS011;39400;49.744;7.012;2023-02-28T09:59:14;10.65;;;3.35;;
33453;SDS011;39400;49.744;7.012;2023-02-28T10:04:46;7.45;;;3.70;;
33453;SDS011;39400;49.744;7.012;2023-02-28T10:08:00;7.75;;;3.85;;
33453;SDS011;39400;49.744;7.012;2023-02-28T10:10:29;7.10;;;3.40;;
33453;SDS011;39400;49.744;7.012;2023-02-28T10:13:00;8.55;;;4.88;;
33453;SDS011;39400;49.744;7.012;2023-02-28T10:15:30;5.65;;;3.65;;
33453;SDS011;39400;49.744;7.012;2023-02-28T10:17:59;6.35;;;3.88;;
33453;SDS011;39400;49.744;7.012;2023-02-28T10:20:29;6.63;;;3.15;;
33453;SDS011;39400;49.744;7.012;2023-02-28T10:25:28;8.52;;;3.33;;
33453;SDS011;39400;49.744;7.012;2023-02-28T10:27:59;6.93;;;3.75;;
33453;SDS011;39400;49.744;7.012;2023-02-28T10:30:30;9.63;;;3.78;;
33453;SDS011;39400;49.744;7.012;2023-02-28T10:32:56;9.25;;;3.90;;
33453;SDS011;39400;49.744;7.012;2023-02-28T10:35:25;7.30;;;4.10;;
33453;SDS011;39400;49.744;7.012;2023-02-28T10:37:58;5.53;;;3.70;;
33453;SDS011;39400;49.744;7.012;2023-02-28T10:40:32;7.68;;;4.07;;
33453;SDS011;39400;49.744;7.012;2023-02-28T10:43:17;6.90;;;4.72;;
33453;SDS011;39400;49.744;7.012;2023-02-28T10:45:52;8.20;;;3.97;;
33453;SDS011;39400;49.744;7.012;2023-02-28T11:03:55;8.23;;;4.38;;
33453;SDS011;39400;49.744;7.012;2023-02-28T11:06:22;8.70;;;4.10;;
33453;SDS011;39400;49.744;7.012;2023-02-28T11:08:54;9.27;;;3.85;;
33453;SDS011;39400;49.744;7.012;2023-02-28T11:11:21;6.22;;;3.55;;
33453;SDS011;39400;49.744;7.012;2023-02-28T11:13:50;6.55;;;4.30;;
33453;SDS011;39400;49.744;7.012;2023-02-28T11:16:18;7.53;;;3.85;;
33453;SDS011;39400;49.744;7.012;2023-02-28T11:18:50;5.30;;;3.60;;
33453;SDS011;39400;49.744;7.012;2023-02-28T11:21:23;6.00;;;3.50;;
33453;SDS011;39400;49.744;7.012;2023-02-28T11:23:52;6.57;;;3.60;;
33453;SDS011;39400;49.744;7.012;2023-02-28T11:26:42;6.05;;;3.33;;
33453;SDS011;39400;49.744;7.012;2023-02-28T11:31:42;8.68;;;5.68;;
33453;SDS011;39400;49.744;7.012;2023-02-28T11:34:25;7.50;;;3.88;;
33453;SDS011;39400;49.744;7.012;2023-02-28T11:36:52;6.00;;;3.55;;
33453;SDS011;39400;49.744;7.012;2023-02-28T11:39:20;6.43;;;3.45;;
33453;SDS011;39400;49.744;7.012;2023-02-28T11:41:53;7.18;;;3.80;;
33453;SDS011;39400;49.744;7.012;2023-02-28T11:44:58;5.68;;;3.70;;
33453;SDS011;39400;49.744;7.012;2023-02-28T11:52:56;5.97;;;3.60;;
33453;SDS011;39400;49.744;7.012;2023-02-28T11:55:37;8.00;;;3.78;;
33453;SDS011;39400;49.744;7.012;2023-02-28T12:01:12;7.88;;;3.30;;
33453;SDS011;39400;49.744;7.012;2023-02-28T12:03:56;6.00;;;3.60;;
33453;SDS011;39400;49.744;7.012;2023-02-28T12:06:40;6.35;;;4.55;;
33453;SDS011;39400;49.744;7.012;2023-02-28T12:09:23;6.95;;;3.83;;
33453;SDS011;39400;49.744;7.012;2023-02-28T12:12:29;10.50;;;3.67;;
33453;SDS011;39400;49.744;7.012;2023-02-28T12:20:25;5.85;;;3.78;;
33453;SDS011;39400;49.744;7.012;2023-02-28T12:26:16;7.18;;;3.50;;
33453;SDS011;39400;49.744;7.012;2023-02-28T12:28:41;8.02;;;3.65;;
33453;SDS011;39400;49.744;7.012;2023-02-28T12:33:50;8.30;;;3.70;;
33453;SDS011;39400;49.744;7.012;2023-02-28T12:36:18;8.73;;;4.43;;
33453;SDS011;39400;49.744;7.012;2023-02-28T12:38:45;6.22;;;3.83;;
33453;SDS011;39400;49.744;7.012;2023-02-28T12:41:15;6.55;;;3.95;;
33453;SDS011;39400;49.744;7.012;2023-02-28T12:43:44;7.78;;;4.28;;
33453;SDS011;39400;49.744;7.012;2023-02-28T12:46:25;8.10;;;4.07;;
33453;SDS011;39400;49.744;7.012;2023-02-28T12:49:23;6.53;;;3.63;;
33453;SDS011;39400;49.744;7.012;2023-02-28T12:51:54;7.30;;;3.88;;
33453;SDS011;39400;49.744;7.012;2023-02-28T12:59:46;6.05;;;3.40;;
33453;SDS011;39400;49.744;7.012;2023-02-28T13:08:11;7.15;;;3.83;;
33453;SDS011;39400;49.744;7.012;2023-02-28T13:10:59;6.88;;;3.90;;
33453;SDS011;39400;49.744;7.012;2023-02-28T13:13:25;7.93;;;4.47;;
33453;SDS011;39400;49.744;7.012;2023-02-28T13:16:08;12.23;;;4.70;;
33453;SDS011;39400;49.744;7.012;2023-02-28T13:18:36;7.22;;;4.78;;
33453;SDS011;39400;49.744;7.012;2023-02-28T13:21:04;7.07;;;4.47;;
33453;SDS011;39400;49.744;7.012;2023-02-28T13:23:55;7.68;;;4.55;;
33453;SDS011;39400;49.744;7.012;2023-02-28T13:26:17;6.88;;;3.92;;
33453;SDS011;39400;49.744;7.012;2023-02-28T13:31:14;8.35;;;5.07;;
33453;SDS011;39400;49.744;7.012;2023-02-28T13:47:16;8.20;;;4.93;;
33453;SDS011;39400;49.744;7.012;2023-02-28T13:51:51;8.07;;;4.65;;
33453;SDS011;39400;49.744;7.012;2023-02-28T13:59:58;12.00;;;6.00;;
33453;SDS011;39400;49.744;7.012;2023-02-28T14:02:48;10.80;;;5.13;;
33453;SDS011;39400;49.744;7.012;2023-02-28T14:05:17;13.50;;;6.55;;
33453;SDS011;39400;49.744;7.012;2023-02-28T14:07:48;8.85;;;5.78;;
33453;SDS011;39400;49.744;7.012;2023-02-28T14:10:21;8.48;;;4.75;;
33453;SDS011;39400;49.744;7.012;2023-02-28T14:18:16;12.07;;;4.43;;
33453;SDS011;39400;49.744;7.012;2023-02-28T14:20:45;10.65;;;4.95;;
33453;SDS011;39400;49.744;7.012;2023-02-28T14:25:55;9.35;;;4.68;;
33453;SDS011;39400;49.744;7.012;2023-02-28T14:34:05;6.57;;;4.57;;
33453;SDS011;39400;49.744;7.012;2023-02-28T14:36:45;5.63;;;3.97;;
33453;SDS011;39400;49.744;7.012;2023-02-28T14:39:13;8.68;;;4.07;;
33453;SDS011;39400;49.744;7.012;2023-02-28T14:46:49;6.90;;;4.37;;
33453;SDS011;39400;49.744;7.012;2023-02-28T14:54:37;6.88;;;4.18;;
33453;SDS011;39400;49.744;7.012;2023-02-28T14:57:03;6.57;;;4.40;;
33453;SDS011;39400;49.744;7.012;2023-02-28T14:59:31;7.60;;;4.13;;
33453;SDS011;39400;49.744;7.012;2023-02-28T15:02:18;5.43;;;4.05;;
33453;SDS011;39400;49.744;7.012;2023-02-28T15:04:51;6.15;;;4.15;;
33453;SDS011;39400;49.744;7.012;2023-02-28T15:07:25;6.07;;;4.47;;
33453;SDS011;39400;49.744;7.012;2023-02-28T15:10:05;5.72;;;3.90;;
33453;SDS011;39400;49.744;7.012;2023-02-28T15:17:48;5.05;;;3.92;;
33453;SDS011;39400;49.744;7.012;2023-02-28T15:20:17;5.68;;;4.07;;
33453;SDS011;39400;49.744;7.012;2023-02-28T15:22:43;7.57;;;3.92;;
33453;SDS011;39400;49.744;7.012;2023-02-28T15:25:13;5.10;;;3.58;;
33453;SDS011;39400;49.744;7.012;2023-02-28T15:27:47;8.35;;;4.47;;
33453;SDS011;39400;49.744;7.012;2023-02-28T15:30:20;4.93;;;3.92;;
33453;SDS011;39400;49.744;7.012;2023-02-28T15:33:02;6.45;;;4.43;;
33453;SDS011;39400;49.744;7.012;2023-02-28T15:38:00;5.35;;;4.15;;
33453;SDS011;39400;49.744;7.012;2023-02-28T15:40:29;6.95;;;4.30;;
33453;SDS011;39400;49.744;7.012;2023-02-28T15:43:03;6.10;;;3.75;;
33453;SDS011;39400;49.744;7.012;2023-02-28T15:45:51;5.38;;;4.05;;
33453;SDS011;39400;49.744;7.012;2023-02-28T15:48:17;6.40;;;4.22;;
33453;SDS011;39400;49.744;7.012;2023-02-28T15:50:49;7.40;;;4.65;;
33453;SDS011;39400;49.744;7.012;2023-02-28T15:53:21;7.85;;;3.97;;
33453;SDS011;39400;49.744;7.012;2023-02-28T15:55:58;8.45;;;4.10;;
33453;SDS011;39400;49.744;7.012;2023-02-28T15:58:26;5.70;;;3.63;;
33453;SDS011;39400;49.744;7.012;2023-02-28T16:01:06;6.60;;;4.18;;
33453;SDS011;39400;49.744;7.012;2023-02-28T16:03:37;7.18;;;3.58;;
33453;SDS011;39400;49.744;7.012;2023-02-28T16:06:17;7.55;;;4.03;;
33453;SDS011;39400;49.744;7.012;2023-02-28T16:08:46;6.57;;;4.95;;
33453;SDS011;39400;49.744;7.012;2023-02-28T16:11:12;7.35;;;4.50;;
33453;SDS011;39400;49.744;7.012;2023-02-28T16:13:37;5.57;;;4.00;;
33453;SDS011;39400;49.744;7.012;2023-02-28T16:16:02;8.80;;;4.20;;
33453;SDS011;39400;49.744;7.012;2023-02-28T16:18:28;7.05;;;4.38;;
33453;SDS011;39400;49.744;7.012;2023-02-28T16:20:54;7.68;;;4.32;;
33453;SDS011;39400;49.744;7.012;2023-02-28T16:23:19;7.28;;;4.03;;
33453;SDS011;39400;49.744;7.012;2023-02-28T16:25:44;6.68;;;4.68;;
33453;SDS011;39400;49.744;7.012;2023-02-28T16:28:13;6.45;;;4.65;;
33453;SDS011;39400;49.744;7.012;2023-02-28T16:30:44;6.28;;;4.43;;
33453;SDS011;39400;49.744;7.012;2023-02-28T16:33:10;7.03;;;4.47;;
33453;SDS011;39400;49.744;7.012;2023-02-28T16:35:35;10.10;;;4.65;;
33453;SDS011;39400;49.744;7.012;2023-02-28T16:38:00;5.93;;;4.30;;
33453;SDS011;39400;49.744;7.012;2023-02-28T16:40:26;9.30;;;4.53;;
33453;SDS011;39400;49.744;7.012;2023-02-28T16:42:52;6.80;;;4.85;;
33453;SDS011;39400;49.744;7.012;2023-02-28T16:45:23;6.70;;;4.47;;
33453;SDS011;39400;49.744;7.012;2023-02-28T16:47:50;6.45;;;4.82;;
33453;SDS011;39400;49.744;7.012;2023-02-28T16:50:17;6.93;;;5.10;;
33453;SDS011;39400;49.744;7.012;2023-02-28T16:52:44;8.13;;;5.10;;
33453;SDS011;39400;49.744;7.012;2023-02-28T16:55:10;12.13;;;5.70;;
33453;SDS011;39400;49.744;7.012;2023-02-28T16:57:36;7.28;;;4.80;;
33453;SDS011;39400;49.744;7.012;2023-02-28T17:00:03;8.05;;;5.28;;
33453;SDS011;39400;49.744;7.012;2023-02-28T17:02:29;9.73;;;5.43;;
33453;SDS011;39400;49.744;7.012;2023-02-28T17:04:54;8.40;;;4.85;;
33453;SDS011;39400;49.744;7.012;2023-02-28T17:07:19;6.22;;;4.20;;
33453;SDS011;39400;49.744;7.012;2023-02-28T17:09:45;9.30;;;5.00;;
33453;SDS011;39400;49.744;7.012;2023-02-28T17:12:10;7.80;;;4.88;;
33453;SDS011;39400;49.744;7.012;2023-02-28T17:14:36;7.43;;;4.78;;
33453;SDS011;39400;49.744;7.012;2023-02-28T17:17:02;8.48;;;5.22;;
33453;SDS011;39400;49.744;7.012;2023-02-28T17:19:29;7.75;;;5.10;;
33453;SDS011;39400;49.744;7.012;2023-02-28T17:21:54;9.38;;;5.22;;
33453;SDS011;39400;49.744;7.012;2023-02-28T17:24:20;8.15;;;4.65;;
33453;SDS011;39400;49.744;7.012;2023-02-28T17:26:45;7.45;;;4.80;;
33453;SDS011;39400;49.744;7.012;2023-02-28T17:29:14;8.32;;;4.50;;
33453;SDS011;39400;49.744;7.012;2023-02-28T17:31:42;8.63;;;4.75;;
33453;SDS011;39400;49.744;7.012;2023-02-28T17:34:07;9.07;;;4.82;;
33453;SDS011;39400;49.744;7.012;2023-02-28T17:36:33;10.35;;;5.45;;
33453;SDS011;39400;49.744;7.012;2023-02-28T17:38:59;9.35;;;4.47;;